Time;durP1;ratioP1;P1;durP2;ratioP2;P2;SDS_P1;SDS_P2;PMS_P1;PMS_P2;Temp;Humidity;BMP_temperature;BMP_pressure;BME280_temperature;BME280_humidity;BME280_pressure;Samples;Min_cycle;Max_cycle;Signal;HPM_P1;HPM_P2
2023/06/04 00:00:23;;;;;;;;;5.33;4.67;;;;;21.10;36.60;101168.88;6191201;23;45301;-67
2023/06/04 00:02:48;;;;;;;;;8.67;8.67;;;;;21.08;36.41;101173.41;6189859;23;45264;-67
2023/06/04 00:05:25;;;;;;;;;8.67;5.67;;;;;21.01;36.41;101155.38;6192211;23;45107;-68
2023/06/04 00:07:53;;;;;;;;;6.00;6.00;;;;;21.06;36.67;101158.94;6192594;22;45219;-69
2023/06/04 00:10:19;;;;;;;;;8.00;5.33;;;;;20.98;36.26;101150.84;6191476;22;45040;-68
2023/06/04 00:12:44;;;;;;;;;5.00;5.00;;;;;20.94;36.39;101145.50;6190596;23;45258;-68
2023/06/04 00:15:10;;;;;;;;;7.00;5.33;;;;;20.84;36.57;101133.81;6190359;23;45189;-66
2023/06/04 00:17:35;;;;;;;;;8.33;7.00;;;;;20.90;36.48;101152.75;6191309;22;45954;-67
2023/06/04 00:20:01;;;;;;;;;5.00;5.00;;;;;20.90;36.62;101154.56;6191247;23;45012;-69
2023/06/04 00:22:26;;;;;;;;;4.67;4.67;;;;;20.76;36.52;101133.00;6191913;22;45028;-66
2023/06/04 00:24:52;;;;;;;;;6.33;3.67;;;;;20.87;36.58;101160.03;6192251;23;45018;-67
2023/06/04 00:27:17;;;;;;;;;6.00;5.67;;;;;20.84;36.57;101163.69;6190940;22;46089;-66
2023/06/04 00:29:43;;;;;;;;;5.67;5.67;;;;;20.76;36.39;101157.44;6191269;22;45049;-67
2023/06/04 00:32:08;;;;;;;;;5.00;4.00;;;;;20.74;36.87;101164.66;6191492;22;44971;-67
2023/06/04 00:34:34;;;;;;;;;3.67;3.67;;;;;20.70;36.54;101165.63;6193125;22;45231;-67
2023/06/04 00:37:01;;;;;;;;;4.00;4.00;;;;;20.62;36.61;101162.94;6193532;23;57902;-67
2023/06/04 00:39:26;;;;;;;;;4.33;4.33;;;;;20.55;37.00;101153.03;6192445;23;45028;-66
2023/06/04 00:41:52;;;;;;;;;5.67;5.67;;;;;20.57;36.77;101162.06;6193435;22;45516;-68
2023/06/04 00:44:17;;;;;;;;;5.33;4.00;;;;;20.57;36.98;101171.13;6193878;22;44785;-67
2023/06/04 00:46:45;;;;;;;;;7.00;4.00;;;;;20.51;36.96;101151.25;6190238;23;45758;-68
2023/06/04 00:49:12;;;;;;;;;7.00;6.00;;;;;20.42;37.13;101145.00;6189764;22;45078;-67
2023/06/04 00:51:38;;;;;;;;;4.00;4.00;;;;;20.54;37.50;101168.44;6190511;22;45003;-68
2023/06/04 00:54:08;;;;;;;;;7.33;3.33;;;;;20.54;37.39;101164.81;6191283;22;45045;-68
2023/06/04 00:56:37;;;;;;;;;6.33;5.33;;;;;20.37;37.14;101146.84;6191273;22;45571;-67
2023/06/04 00:59:03;;;;;;;;;2.00;2.00;;;;;20.34;37.10;101141.47;6191212;22;44980;-67
2023/06/04 01:01:35;;;;;;;;;7.00;4.67;;;;;20.40;37.29;101163.09;6191187;22;45103;-68
2023/06/04 01:04:03;;;;;;;;;5.67;5.67;;;;;20.35;37.49;101164.97;6192272;23;45186;-66
2023/06/04 01:06:42;;;;;;;;;8.00;7.33;;;;;20.31;37.67;101168.63;6190932;22;45694;-67
2023/06/04 01:09:08;;;;;;;;;6.67;5.33;;;;;20.23;37.66;101149.66;6190749;22;45137;-66
2023/06/04 01:11:34;;;;;;;;;2.67;2.67;;;;;20.24;37.55;101159.63;6190890;22;45058;-67
2023/06/04 01:14:01;;;;;;;;;2.33;2.33;;;;;20.26;37.74;101162.34;6191212;22;44908;-67
2023/06/04 01:16:32;;;;;;;;;4.00;4.00;;;;;20.23;37.42;101156.91;6190659;22;45465;-67
2023/06/04 01:19:02;;;;;;;;;4.33;3.00;;;;;20.20;37.66;101155.13;6190925;22;44999;-67
2023/06/04 01:21:35;;;;;;;;;3.00;3.00;;;;;20.16;37.86;101169.63;6192011;22;45023;-68
2023/06/04 01:24:04;;;;;;;;;2.67;2.67;;;;;20.14;38.14;101163.28;6191977;22;44834;-68
2023/06/04 01:26:31;;;;;;;;;4.00;3.00;;;;;19.92;37.80;101123.66;6191066;23;45389;-68
2023/06/04 01:29:00;;;;;;;;;6.00;4.00;;;;;20.12;37.67;101159.69;6191775;22;44883;-68
2023/06/04 01:31:27;;;;;;;;;3.33;3.33;;;;;20.07;37.88;101157.00;6190198;23;45125;-67
2023/06/04 01:33:53;;;;;;;;;3.00;1.67;;;;;20.07;37.88;101161.53;6190436;23;44972;-68
2023/06/04 01:36:19;;;;;;;;;1.67;1.67;;;;;20.02;37.70;101147.09;6190741;23;45145;-68
2023/06/04 01:38:45;;;;;;;;;3.00;3.00;;;;;19.96;37.90;101152.56;6191165;22;45050;-67
2023/06/04 01:41:10;;;;;;;;;3.33;3.00;;;;;20.05;38.00;101169.69;6191580;23;45014;-68
2023/06/04 01:43:36;;;;;;;;;2.00;2.00;;;;;19.97;38.08;101149.84;6191636;22;45215;-68
2023/06/04 01:46:03;;;;;;;;;4.00;4.00;;;;;19.93;37.88;101153.50;6190653;23;45160;-68
2023/06/04 01:48:28;;;;;;;;;4.00;3.00;;;;;19.92;37.85;101162.53;6191156;22;44945;-68
2023/06/04 01:50:54;;;;;;;;;4.33;4.33;;;;;19.95;38.07;101167.03;6191147;23;45114;-66
2023/06/04 01:53:20;;;;;;;;;3.33;2.67;;;;;19.87;37.90;101167.97;6191440;22;45024;-68
2023/06/04 01:55:45;;;;;;;;;5.33;4.67;;;;;19.73;38.11;101145.41;6191908;23;45386;-68
2023/06/04 01:58:11;;;;;;;;;3.67;3.00;;;;;19.84;38.11;101175.22;6192862;22;44998;-67
2023/06/04 02:00:36;;;;;;;;;4.33;3.67;;;;;19.76;38.06;101161.69;6193337;23;45385;-66
2023/06/04 02:03:01;;;;;;;;;6.00;3.00;;;;;19.74;38.35;101168.03;6193045;23;44857;-67
2023/06/04 02:05:27;;;;;;;;;6.00;4.33;;;;;19.72;38.13;101167.13;6190322;22;45363;-65
2023/06/04 02:07:52;;;;;;;;;4.33;4.33;;;;;19.72;38.09;101169.84;6192397;22;44839;-67
2023/06/04 02:10:19;;;;;;;;;3.00;3.00;;;;;19.70;38.17;101176.16;6191430;22;45212;-66
2023/06/04 02:12:59;;;;;;;;;2.00;2.00;;;;;19.72;38.25;101175.28;6191815;22;45029;-67
2023/06/04 02:15:26;;;;;;;;;5.00;3.67;;;;;19.69;38.09;101168.94;6191361;22;46394;-66
2023/06/04 02:17:55;;;;;;;;;5.00;3.00;;;;;19.65;38.36;101185.19;6189209;23;45156;-66
2023/06/04 02:20:20;;;;;;;;;2.33;2.33;;;;;19.62;38.15;101185.25;6189549;23;45171;-67
2023/06/04 02:22:46;;;;;;;;;3.33;2.67;;;;;19.39;38.35;101153.69;6191160;23;45160;-67
2023/06/04 02:25:11;;;;;;;;;5.33;3.33;;;;;19.50;38.15;101181.66;6190389;23;45953;-67
2023/06/04 02:27:36;;;;;;;;;4.33;4.33;;;;;19.42;38.67;101185.28;6190866;22;45056;-66
2023/06/04 02:30:06;;;;;;;;;3.00;3.00;;;;;19.40;38.64;101178.97;6191242;22;45406;-67
2023/06/04 02:32:31;;;;;;;;;4.00;4.00;;;;;19.43;38.51;101187.09;6191306;22;45050;-66
2023/06/04 02:34:56;;;;;;;;;3.00;3.00;;;;;19.44;38.96;101197.94;6190053;23;45484;-67
2023/06/04 02:37:22;;;;;;;;;4.33;2.33;;;;;19.41;38.70;101191.63;6191100;22;45243;-65
2023/06/04 02:39:47;;;;;;;;;3.00;3.00;;;;;19.41;38.76;101188.91;6190775;22;45231;-65
2023/06/04 02:42:13;;;;;;;;;5.00;3.50;;;;;19.34;38.51;101196.16;6190372;22;45373;-65
2023/06/04 02:44:38;;;;;;;;;2.00;2.00;;;;;19.26;38.95;101181.75;6190788;23;45519;-67
2023/06/04 02:47:04;;;;;;;;;3.00;3.00;;;;;19.28;38.68;101185.34;6189972;22;45025;-66
2023/06/04 02:49:30;;;;;;;;;4.00;3.00;;;;;19.21;38.77;101181.75;6189330;23;45031;-66
2023/06/04 02:51:55;;;;;;;;;3.00;3.00;;;;;18.85;38.82;101124.03;6190374;22;44944;-68
2023/06/04 02:54:20;;;;;;;;;4.00;4.00;;;;;19.22;38.39;101191.69;6189609;23;45654;-67
2023/06/04 02:56:46;;;;;;;;;3.00;3.00;;;;;19.03;38.87;101161.00;6190353;23;54604;-67
2023/06/04 02:59:11;;;;;;;;;4.00;4.00;;;;;19.08;38.81;101174.56;6190624;22;45023;-65
2023/06/04 03:01:36;;;;;;;;;2.33;2.33;;;;;19.11;39.09;101193.50;6214736;22;45182;-66
2023/06/04 03:04:04;;;;;;;;;2.67;2.67;;;;;19.02;38.97;101188.09;6187959;22;52711;-67
2023/06/04 03:06:33;;;;;;;;;2.67;2.33;;;;;18.94;39.15;101180.91;6189796;22;44991;-66
2023/06/04 03:08:58;;;;;;;;;3.00;2.00;;;;;18.83;39.09;101170.94;6189426;23;45309;-66
2023/06/04 03:11:24;;;;;;;;;3.00;3.00;;;;;18.93;39.33;101180.91;6189735;22;44882;-65
2023/06/04 03:13:51;;;;;;;;;2.00;2.00;;;;;18.93;39.08;101180.91;6188789;23;46176;-66
2023/06/04 03:16:17;;;;;;;;;3.00;3.00;;;;;18.96;39.17;101186.31;6191748;22;44921;-64
2023/06/04 03:18:44;;;;;;;;;2.00;2.00;;;;;18.90;39.21;101179.06;6192239;23;44847;-66
2023/06/04 03:21:11;;;;;;;;;3.33;2.00;;;;;18.82;39.08;101167.31;6191824;22;45148;-65
2023/06/04 03:23:36;;;;;;;;;5.00;2.00;;;;;18.94;39.05;101186.31;6189329;23;47943;-63
2023/06/04 03:26:02;;;;;;;;;4.00;3.00;;;;;18.95;38.97;101188.09;6190955;23;45050;-68
2023/06/04 03:28:28;;;;;;;;;2.00;2.00;;;;;18.95;39.06;101182.69;6189476;23;45226;-66
2023/06/04 03:30:53;;;;;;;;;1.00;1.00;;;;;18.93;39.16;101180.91;6192157;22;44936;-67
2023/06/04 03:33:19;;;;;;;;;4.67;3.00;;;;;18.87;38.68;101173.66;6192388;23;45026;-67
2023/06/04 03:35:45;;;;;;;;;3.00;3.00;;;;;18.91;39.13;101191.72;6192048;22;45060;-66
2023/06/04 03:38:10;;;;;;;;;6.67;3.33;;;;;18.88;38.93;101171.88;6191507;22;45232;-66
2023/06/04 03:40:36;;;;;;;;;2.33;2.33;;;;;18.79;38.96;101173.66;6191791;22;45084;-66
2023/06/04 03:43:03;;;;;;;;;1.33;1.33;;;;;18.79;38.96;101173.66;6191380;23;45559;-66
2023/06/04 03:45:29;;;;;;;;;3.33;3.33;;;;;18.77;38.87;101185.38;6191535;22;45140;-65
2023/06/04 03:47:54;;;;;;;;;5.00;3.67;;;;;18.70;39.25;101189.88;6192465;22;45051;-66
2023/06/04 03:50:20;;;;;;;;;4.33;3.00;;;;;18.57;39.56;101188.97;6193332;22;45064;-64
2023/06/04 03:52:45;;;;;;;;;3.00;2.00;;;;;18.57;39.43;101188.97;6191187;23;45788;-66
2023/06/04 03:55:11;;;;;;;;;3.00;3.00;;;;;18.30;39.42;101137.59;6191120;22;44873;-66
2023/06/04 03:57:38;;;;;;;;;2.33;2.33;;;;;18.57;39.43;101197.09;6191369;23;44869;-66
2023/06/04 04:00:05;;;;;;;;;2.67;2.67;;;;;18.52;39.54;101198.91;6193313;22;44929;-67
2023/06/04 04:02:31;;;;;;;;;4.33;3.00;;;;;18.42;39.61;101195.28;6191842;22;45156;-65
2023/06/04 04:04:57;;;;;;;;;4.33;4.33;;;;;18.49;39.60;101215.13;6190734;23;45581;-65
2023/06/04 04:07:22;;;;;;;;;4.33;3.00;;;;;18.41;39.63;101209.72;6191998;22;45000;-64
2023/06/04 04:09:48;;;;;;;;;3.00;3.00;;;;;18.34;39.45;101196.19;6192156;22;45108;-67
2023/06/04 04:12:13;;;;;;;;;3.00;3.00;;;;;18.39;39.36;101211.50;6191000;23;48720;-65
2023/06/04 04:14:38;;;;;;;;;2.00;2.00;;;;;18.29;39.54;101208.78;6191273;23;44866;-67
2023/06/04 04:17:04;;;;;;;;;4.33;2.33;;;;;18.34;39.66;101215.13;6190509;22;45007;-66
2023/06/04 04:19:29;;;;;;;;;2.00;2.00;;;;;18.35;39.36;101212.41;6191791;22;45087;-67
2023/06/04 04:21:55;;;;;;;;;2.67;2.00;;;;;18.37;39.58;101212.41;6191193;23;47039;-65
2023/06/04 04:24:24;;;;;;;;;2.33;2.33;;;;;18.28;39.70;101209.69;6191581;22;45240;-68
2023/06/04 04:26:53;;;;;;;;;2.33;2.33;;;;;18.21;39.63;101208.78;6192248;22;44958;-66
2023/06/04 04:29:24;;;;;;;;;3.00;3.00;;;;;17.72;39.93;101130.19;6193099;22;44926;-67
2023/06/04 04:31:50;;;;;;;;;6.67;2.67;;;;;18.22;39.79;101216.00;6192151;22;46890;-66
2023/06/04 04:34:16;;;;;;;;;3.33;2.33;;;;;18.19;40.00;101219.59;6192121;22;45261;-68
2023/06/04 04:36:43;;;;;;;;;4.33;3.00;;;;;18.09;39.73;101203.34;6192275;22;45026;-68
2023/06/04 04:39:09;;;;;;;;;4.00;2.00;;;;;18.15;39.61;101206.03;6193027;22;45031;-65
2023/06/04 04:41:35;;;;;;;;;3.33;3.00;;;;;17.63;39.67;101129.28;6192390;23;45750;-66
2023/06/04 04:44:04;;;;;;;;;2.67;2.67;;;;;18.11;39.72;101225.88;6192139;22;45087;-67
2023/06/04 04:46:30;;;;;;;;;2.00;2.00;;;;;18.01;39.62;101224.94;6189534;23;45509;-65
2023/06/04 04:48:55;;;;;;;;;2.00;2.00;;;;;18.03;39.67;101226.78;6191365;22;45275;-67
2023/06/04 04:51:21;;;;;;;;;3.00;2.00;;;;;18.05;39.44;101233.09;6190708;23;63589;-66
2023/06/04 04:53:47;;;;;;;;;3.00;3.00;;;;;17.99;39.97;101224.94;6191018;22;45042;-65
2023/06/04 04:56:12;;;;;;;;;2.33;2.33;;;;;18.06;40.01;101236.69;6191374;22;45453;-67
2023/06/04 04:58:38;;;;;;;;;2.00;2.00;;;;;18.02;39.71;101224.06;6191040;23;44870;-67
2023/06/04 05:01:03;;;;;;;;;2.00;2.00;;;;;18.09;39.72;101242.09;6190220;23;46138;-66
2023/06/04 05:03:28;;;;;;;;;2.00;2.00;;;;;18.00;39.79;101228.53;6191677;23;44859;-68
2023/06/04 05:05:54;;;;;;;;;3.00;2.00;;;;;17.96;39.45;101215.91;6188961;22;45103;-65
2023/06/04 05:08:19;;;;;;;;;1.67;1.67;;;;;18.05;39.81;101229.47;6188442;23;45143;-68
2023/06/04 05:10:45;;;;;;;;;2.00;2.00;;;;;18.12;39.72;101246.63;6189420;23;45827;-66
2023/06/04 05:13:11;;;;;;;;;2.33;2.00;;;;;18.06;39.57;101228.56;6190927;23;45028;-68
2023/06/04 05:15:36;;;;;;;;;2.00;2.00;;;;;18.17;39.91;101239.44;6191446;22;45114;-65
2023/06/04 05:18:03;;;;;;;;;4.00;2.67;;;;;18.19;39.60;101241.22;6191453;22;45035;-65
2023/06/04 05:20:29;;;;;;;;;2.00;2.00;;;;;18.18;39.61;101219.56;6190591;23;46893;-67
2023/06/04 05:22:55;;;;;;;;;1.67;0.67;;;;;18.31;39.51;101240.34;6192067;22;44901;-66
2023/06/04 05:25:21;;;;;;;;;2.00;1.33;;;;;18.30;39.15;101241.25;6192333;22;44971;-66
2023/06/04 05:27:49;;;;;;;;;3.00;3.00;;;;;18.34;39.10;101245.75;6192124;23;44961;-68
2023/06/04 05:30:14;;;;;;;;;1.67;1.67;;;;;18.27;39.20;101232.25;6191249;23;45127;-66
2023/06/04 05:32:40;;;;;;;;;2.00;2.00;;;;;18.31;39.18;101232.22;6191569;23;45220;-67
2023/06/04 05:35:07;;;;;;;;;3.33;2.00;;;;;18.36;39.02;101244.00;6190855;22;45039;-67
2023/06/04 05:37:37;;;;;;;;;5.00;4.00;;;;;18.37;39.31;101245.78;6190612;22;45168;-67
2023/06/04 05:40:04;;;;;;;;;1.33;1.33;;;;;18.35;39.16;101246.69;6189583;22;46303;-66
2023/06/04 05:42:30;;;;;;;;;4.00;4.00;;;;;18.33;39.37;101245.75;6190044;22;45123;-68
2023/06/04 05:44:55;;;;;;;;;4.00;3.00;;;;;18.24;39.19;101230.41;6190632;23;44946;-69
2023/06/04 05:47:21;;;;;;;;;2.33;1.33;;;;;18.40;39.16;101253.00;6191169;22;44919;-66
2023/06/04 05:49:46;;;;;;;;;2.00;2.00;;;;;18.37;39.48;101239.47;6190257;22;45930;-68
2023/06/04 05:52:11;;;;;;;;;2.00;2.00;;;;;18.40;39.36;101242.19;6190798;22;44876;-66
2023/06/04 05:54:37;;;;;;;;;1.67;1.00;;;;;18.53;39.06;101265.66;6190357;22;45200;-68
2023/06/04 05:57:04;;;;;;;;;2.00;2.00;;;;;18.36;39.03;101234.94;6190883;23;44948;-68
2023/06/04 05:59:29;;;;;;;;;4.00;2.00;;;;;18.55;39.33;101273.78;6190906;23;45255;-65
2023/06/04 06:01:55;;;;;;;;;3.00;3.00;;;;;18.59;39.10;101276.50;6191181;23;44960;-68
2023/06/04 06:04:20;;;;;;;;;2.00;2.00;;;;;18.57;38.76;101266.56;6191838;22;45005;-67
2023/06/04 06:06:48;;;;;;;;;2.00;2.00;;;;;18.66;38.85;101281.91;6190494;23;45089;-67
2023/06/04 06:09:14;;;;;;;;;2.00;2.00;;;;;18.58;38.89;101269.28;6190709;22;45216;-66
2023/06/04 06:11:40;;;;;;;;;5.00;2.00;;;;;18.65;38.74;101272.88;6191207;22;45000;-68
2023/06/04 06:14:06;;;;;;;;;1.00;1.00;;;;;18.67;38.80;101267.47;6191187;22;44926;-65
2023/06/04 06:16:32;;;;;;;;;2.33;2.33;;;;;18.74;38.82;101267.50;6191346;23;45246;-65
2023/06/04 06:18:58;;;;;;;;;2.67;2.67;;;;;18.83;38.70;101282.88;6190818;22;45218;-67
2023/06/04 06:24:00;;;;;;;;;6.00;3.00;;;;;18.91;38.45;101283.78;6162500;23;45147;-63
2023/06/04 06:26:25;;;;;;;;;3.33;1.67;;;;;18.68;38.58;101258.47;6161624;23;44937;-63
2023/06/04 06:28:51;;;;;;;;;3.00;2.00;;;;;18.92;38.35;101280.19;6161157;23;45835;-62
2023/06/04 06:31:16;;;;;;;;;5.33;2.67;;;;;18.96;38.50;101281.97;6160802;23;45067;-62
2023/06/04 06:33:41;;;;;;;;;2.00;1.00;;;;;18.99;38.29;101275.69;6161839;23;44888;-62
2023/06/04 06:36:11;;;;;;;;;3.00;2.33;;;;;19.08;38.26;101285.59;6160876;23;45568;-63
2023/06/04 06:38:37;;;;;;;;;2.67;2.33;;;;;19.12;38.58;101285.59;6160252;23;46091;-62
2023/06/04 06:41:02;;;;;;;;;1.00;1.00;;;;;19.12;38.85;101272.06;6161155;23;44864;-63
2023/06/04 06:43:28;;;;;;;;;5.67;3.00;;;;;19.24;38.34;101289.22;6161728;23;44846;-63
2023/06/04 06:45:53;;;;;;;;;3.00;3.00;;;;;19.29;38.48;101285.56;6161567;23;45167;-62
2023/06/04 06:48:18;;;;;;;;;3.00;2.00;;;;;19.27;38.15;101290.09;6158687;23;62327;-62
2023/06/04 06:50:43;;;;;;;;;1.00;1.00;;;;;19.28;38.38;101286.47;6162030;23;45079;-61
2023/06/04 06:53:09;;;;;;;;;2.00;2.00;;;;;19.23;37.86;101272.03;6162388;23;45095;-62
2023/06/04 06:55:34;;;;;;;;;2.67;2.00;;;;;19.41;37.97;101284.66;6160611;23;45077;-61
2023/06/04 06:57:59;;;;;;;;;1.67;1.67;;;;;19.47;37.70;101287.38;6162604;23;45614;-62
2023/06/04 07:00:26;;;;;;;;;2.00;0.00;;;;;19.54;37.74;101285.53;6161813;23;45182;-62
2023/06/04 07:02:51;;;;;;;;;4.00;2.33;;;;;19.64;37.36;101289.13;6162079;23;44974;-62
2023/06/04 07:05:17;;;;;;;;;3.00;2.00;;;;;19.66;37.54;101276.47;6161033;23;45274;-63
2023/06/04 07:07:43;;;;;;;;;3.00;1.00;;;;;19.76;37.25;101286.41;6162578;23;44951;-61
2023/06/04 07:10:09;;;;;;;;;2.00;2.00;;;;;19.89;37.54;101287.28;6185801;23;45088;-60
2023/06/04 07:12:34;;;;;;;;;2.67;2.00;;;;;19.97;37.10;101282.72;6161563;23;45024;-62
2023/06/04 07:15:00;;;;;;;;;2.67;2.00;;;;;20.04;36.85;101287.22;6162804;23;45051;-63
2023/06/04 07:17:25;;;;;;;;;2.00;2.00;;;;;20.14;36.79;101287.19;6185127;23;47185;-63
2023/06/04 07:19:51;;;;;;;;;2.67;2.67;;;;;20.18;36.75;101287.16;6161495;23;44853;-61
2023/06/04 07:22:16;;;;;;;;;2.33;2.33;;;;;20.29;36.25;101286.22;6159427;23;45129;-67
2023/06/04 07:24:42;;;;;;;;;3.00;3.00;;;;;20.36;36.50;101287.97;6161532;23;45042;-68
2023/06/04 07:27:14;;;;;;;;;3.67;2.33;;;;;20.37;36.31;101274.38;6159587;23;46050;-61
2023/06/04 07:29:40;;;;;;;;;12.67;9.33;;;;;20.42;36.38;101264.41;6161389;23;44941;-61
2023/06/04 07:32:06;;;;;;;;;3.00;2.67;;;;;20.63;36.10;101281.53;6159704;23;45097;-63
2023/06/04 07:34:32;;;;;;;;;3.33;3.33;;;;;20.73;35.77;101285.97;6159982;23;45144;-62
2023/06/04 07:36:57;;;;;;;;;2.00;2.00;;;;;20.80;35.64;101275.97;6158733;23;45265;-62
2023/06/04 07:39:23;;;;;;;;;4.67;2.00;;;;;20.99;35.78;101282.16;6160458;23;45416;-63
2023/06/04 07:41:48;;;;;;;;;3.00;3.00;;;;;21.07;35.59;101284.78;6184141;23;45262;-63
2023/06/04 07:44:14;;;;;;;;;3.00;1.67;;;;;21.23;35.29;101296.44;6161665;23;45110;-63
2023/06/04 07:46:39;;;;;;;;;3.33;2.33;;;;;21.32;34.73;101277.34;6160064;23;45413;-62
2023/06/04 07:49:05;;;;;;;;;4.33;3.00;;;;;21.54;34.39;101283.50;6161692;23;44900;-61
2023/06/04 07:51:30;;;;;;;;;3.00;1.00;;;;;21.68;34.67;101283.38;6160608;23;45001;-61
2023/06/04 07:53:56;;;;;;;;;2.00;2.00;;;;;21.69;34.50;101267.00;6161759;23;44941;-69
2023/06/04 07:56:21;;;;;;;;;5.00;3.00;;;;;21.84;34.38;101293.13;6160358;23;45755;-68
2023/06/04 07:58:46;;;;;;;;;2.33;2.00;;;;;21.82;34.50;101275.03;6159512;23;45110;-67
2023/06/04 08:01:12;;;;;;;;;2.00;2.00;;;;;21.90;34.17;101286.72;6161982;23;45139;-68
2023/06/04 08:03:38;;;;;;;;;3.00;2.67;;;;;21.89;34.29;101274.03;6160583;23;45977;-70
2023/06/04 08:06:03;;;;;;;;;1.67;1.67;;;;;21.97;34.19;101283.00;6158491;23;45569;-69
2023/06/04 08:08:29;;;;;;;;;2.00;2.00;;;;;22.03;34.32;101273.88;6160804;23;44850;-68
2023/06/04 08:10:54;;;;;;;;;2.00;2.00;;;;;22.02;33.87;101258.47;6160534;23;45264;-68
2023/06/04 08:13:20;;;;;;;;;4.00;2.67;;;;;22.18;33.75;101279.09;6161787;23;44819;-68
2023/06/04 08:15:46;;;;;;;;;3.00;3.00;;;;;22.23;33.78;101276.34;6162538;23;45265;-68
2023/06/04 08:18:11;;;;;;;;;2.00;2.00;;;;;22.38;33.73;101273.41;6163708;23;45019;-67
2023/06/04 08:20:36;;;;;;;;;8.67;5.33;;;;;22.43;34.16;101259.75;6162234;23;44890;-68
2023/06/04 08:23:02;;;;;;;;;3.33;3.33;;;;;22.57;33.59;101268.63;6159548;23;45028;-65
2023/06/04 08:25:27;;;;;;;;;2.67;2.67;;;;;22.66;33.94;101264.84;6162124;23;45596;-68
2023/06/04 08:27:52;;;;;;;;;3.33;3.33;;;;;22.74;33.30;101262.91;6162629;23;44912;-66
2023/06/04 08:30:18;;;;;;;;;5.00;2.00;;;;;22.75;33.39;101256.53;6163836;23;45379;-68
2023/06/04 08:32:44;;;;;;;;;3.00;2.00;;;;;22.78;33.51;101253.75;6162526;23;44992;-64
2023/06/04 08:35:09;;;;;;;;;3.67;2.33;;;;;22.84;33.32;101250.03;6160961;23;45628;-68
2023/06/04 08:37:35;;;;;;;;;3.00;3.00;;;;;22.96;33.40;101255.25;6161692;23;45161;-67
2023/06/04 08:40:01;;;;;;;;;1.67;1.33;;;;;22.99;33.11;101251.59;6184162;23;45190;-66
2023/06/04 08:42:31;;;;;;;;;5.33;3.00;;;;;23.14;32.94;101270.44;6160244;23;45311;-67
2023/06/04 08:44:57;;;;;;;;;2.00;2.00;;;;;23.21;32.75;101256.72;6157256;23;45193;-68
2023/06/04 08:47:26;;;;;;;;;2.00;2.00;;;;;23.30;32.62;101262.00;6158830;23;45108;-69
2023/06/04 08:49:52;;;;;;;;;4.00;4.00;;;;;23.40;32.73;101260.00;6161232;23;45325;-68
2023/06/04 08:52:21;;;;;;;;;2.00;2.00;;;;;23.44;31.71;101259.00;6160900;23;45371;-69
2023/06/04 08:54:51;;;;;;;;;2.00;2.00;;;;;23.24;32.16;101226.66;6160053;23;46274;-69
2023/06/04 08:57:19;;;;;;;;;2.00;2.00;;;;;23.52;31.83;101265.22;6160387;23;45346;-71
2023/06/04 08:59:48;;;;;;;;;3.33;2.00;;;;;23.49;31.60;101252.53;6160379;23;45530;-68
2023/06/04 09:02:17;;;;;;;;;4.00;3.00;;;;;23.67;32.04;101259.44;6159398;23;45472;-68
2023/06/04 09:04:43;;;;;;;;;2.00;2.00;;;;;23.74;31.42;101252.03;6157001;23;45862;-66
2023/06/04 09:07:12;;;;;;;;;2.33;2.33;;;;;23.77;31.41;101248.38;6159040;23;44898;-67
2023/06/04 09:09:39;;;;;;;;;3.00;2.00;;;;;23.90;30.79;101258.13;6157078;23;44960;-68
2023/06/04 09:12:10;;;;;;;;;1.00;1.00;;;;;23.96;31.40;101254.41;6158264;23;45023;-70
2023/06/04 09:14:35;;;;;;;;;2.67;2.67;;;;;23.97;31.31;101242.53;6159026;23;45642;-69
2023/06/04 09:17:01;;;;;;;;;4.00;2.00;;;;;24.10;30.93;101244.97;6160524;23;49188;-70
2023/06/04 09:19:26;;;;;;;;;5.00;4.33;;;;;24.20;30.32;101233.84;6161564;23;44909;-70
2023/06/04 09:21:52;;;;;;;;;2.00;2.00;;;;;24.27;29.94;101230.94;6159036;23;45036;-69
2023/06/04 09:24:19;;;;;;;;;2.67;2.67;;;;;24.43;29.79;101250.56;6158459;23;46025;-69
2023/06/04 09:26:45;;;;;;;;;3.00;2.00;;;;;24.46;27.69;101246.88;6159867;23;45060;-68
2023/06/04 09:29:10;;;;;;;;;2.33;2.33;;;;;24.46;27.62;101236.84;6161726;23;45008;-68
2023/06/04 09:31:38;;;;;;;;;5.00;3.00;;;;;24.54;26.58;101236.69;6159157;23;45011;-69
2023/06/04 09:34:03;;;;;;;;;3.67;3.00;;;;;24.50;26.00;101217.66;6157788;23;45123;-66
2023/06/04 09:36:32;;;;;;;;;2.00;2.00;;;;;24.66;26.34;101249.19;6157340;23;45259;-67
2023/06/04 09:38:58;;;;;;;;;2.00;2.00;;;;;24.69;26.33;101240.03;6160198;23;45142;-67
2023/06/04 09:41:25;;;;;;;;;1.00;1.00;;;;;24.78;26.76;101237.97;6161005;23;45119;-66
2023/06/04 09:43:51;;;;;;;;;4.00;3.67;;;;;24.80;26.64;101241.53;6157362;23;45434;-67
2023/06/04 09:46:17;;;;;;;;;2.00;2.00;;;;;24.45;26.27;101169.53;6160390;23;45118;-67
2023/06/04 09:48:44;;;;;;;;;4.00;4.00;;;;;25.00;26.16;101256.56;6160775;23;45026;-68
2023/06/04 09:51:18;;;;;;;;;3.67;3.67;;;;;24.94;25.70;101221.16;6160730;23;44951;-66
2023/06/04 09:53:53;;;;;;;;;7.00;6.00;;;;;25.03;25.50;101253.75;6160591;23;46133;-66
2023/06/04 09:56:18;;;;;;;;;5.00;4.00;;;;;25.10;25.13;101255.38;6160134;23;45068;-67
2023/06/04 09:58:46;;;;;;;;;3.00;2.00;;;;;25.09;25.13;101255.41;6160026;23;45170;-67
2023/06/04 10:01:12;;;;;;;;;7.00;5.00;;;;;25.11;25.01;101262.66;6160015;23;45527;-67
2023/06/04 10:03:42;;;;;;;;;8.00;7.33;;;;;25.13;24.94;101254.41;6159308;23;45148;-67
2023/06/04 10:06:08;;;;;;;;;4.33;4.33;;;;;25.18;25.27;101256.06;6159283;23;45257;-67
2023/06/04 10:08:34;;;;;;;;;6.67;6.00;;;;;25.25;25.19;101255.91;6158095;23;44992;-68
2023/06/04 10:11:01;;;;;;;;;7.67;7.67;;;;;25.28;25.26;101253.13;6161178;23;45161;-68
2023/06/04 10:13:38;;;;;;;;;13.33;8.33;;;;;25.22;25.70;101250.53;6160574;23;45227;-71
2023/06/04 10:16:06;;;;;;;;;7.00;5.67;;;;;25.32;24.87;101268.50;6160583;23;45358;-67
2023/06/04 10:18:33;;;;;;;;;4.33;3.00;;;;;25.25;24.83;101250.44;6160326;23;44878;-67
2023/06/04 10:20:59;;;;;;;;;4.33;4.33;;;;;25.31;25.52;101250.28;6159874;23;45011;-67
2023/06/04 10:23:24;;;;;;;;;1.33;1.33;;;;;25.40;25.20;101268.31;6158542;23;45606;-67
2023/06/04 10:25:52;;;;;;;;;5.00;2.00;;;;;25.37;25.60;101252.88;6158727;23;44917;-67
2023/06/04 10:28:19;;;;;;;;;12.33;10.67;;;;;25.42;25.47;101252.75;6159517;23;45155;-65
2023/06/04 10:30:45;;;;;;;;;3.00;3.00;;;;;25.42;24.88;101256.38;6161739;23;45339;-68
2023/06/04 10:33:11;;;;;;;;;4.33;4.00;;;;;25.47;25.06;101259.88;6160370;23;45232;-66
2023/06/04 10:35:37;;;;;;;;;3.00;2.00;;;;;25.53;25.04;101259.72;6157841;23;45012;-65
2023/06/04 10:38:10;;;;;;;;;3.00;3.00;;;;;25.45;25.26;101236.25;6159305;23;45416;-67
2023/06/04 10:40:37;;;;;;;;;2.00;2.00;;;;;25.54;24.82;101260.59;6159822;23;45413;-66
2023/06/04 10:43:07;;;;;;;;;3.00;3.00;;;;;25.50;24.78;101250.69;6159089;23;45446;-66
2023/06/04 10:45:32;;;;;;;;;4.67;4.67;;;;;25.47;24.68;101245.31;6160392;23;45053;-68
2023/06/04 10:48:05;;;;;;;;;7.33;5.33;;;;;25.51;23.71;101250.66;6160895;23;45115;-68
2023/06/04 10:50:33;;;;;;;;;4.00;3.33;;;;;25.55;23.75;101244.16;6159399;23;44910;-67
2023/06/04 10:53:02;;;;;;;;;3.67;3.67;;;;;25.51;23.66;101245.19;6159639;23;45146;-68
2023/06/04 10:55:28;;;;;;;;;2.00;2.00;;;;;25.55;23.55;101246.00;6159508;23;45220;-67
2023/06/04 10:57:58;;;;;;;;;3.67;3.00;;;;;25.59;23.54;101255.94;6159792;23;45181;-68
2023/06/04 11:00:41;;;;;;;;;3.00;2.00;;;;;25.56;23.52;101242.31;6159980;23;45157;-67
2023/06/04 11:03:09;;;;;;;;;1.33;1.33;;;;;25.54;23.98;101238.72;6159559;23;46903;-69
2023/06/04 11:05:39;;;;;;;;;2.00;2.00;;;;;25.54;23.59;101239.63;6158174;23;45177;-66
2023/06/04 11:08:06;;;;;;;;;2.00;2.00;;;;;25.61;23.30;101253.16;6159697;23;45270;-67
2023/06/04 11:10:43;;;;;;;;;3.00;3.00;;;;;25.45;23.15;101237.13;6160005;23;45176;-68
2023/06/04 11:13:08;;;;;;;;;3.00;2.33;;;;;25.60;22.75;101257.69;6128516;23;45565;-68
2023/06/04 11:15:50;;;;;;;;;2.00;2.00;;;;;25.62;22.74;101258.53;6129697;23;44976;-70
2023/06/04 11:18:19;;;;;;;;;3.33;2.33;;;;;25.61;23.08;101253.16;6130446;23;45456;-70
2023/06/04 11:20:46;;;;;;;;;2.33;2.33;;;;;25.60;23.46;101265.03;6130609;23;45600;-67
2023/06/04 11:23:13;;;;;;;;;2.00;2.00;;;;;25.47;23.27;101234.38;6129178;23;45594;-71